Time;durP1;ratioP1;P1;durP2;ratioP2;P2;SDS_P1;SDS_P2;PMS_P1;PMS_P2;Temp;Humidity;BMP_temperature;BMP_pressure;BME280_temperature;BME280_humidity;BME280_pressure;Samples;Min_cycle;Max_cycle;Signal;HPM_P1;HPM_P2
2023/04/23 00:01:56;;;;;;;;;;;;;;;;;;4918856;29;19916;-90
2023/04/23 00:04:21;;;;;;;;;;;;;;;;;;4892201;29;19967;-89
2023/04/23 00:06:46;;;;;;;;;;;;;;;;;;4902893;29;19915;-91
2023/04/23 00:09:12;;;;;;;;;;;;;;;;;;4932715;29;19899;-90
2023/04/23 00:11:38;;;;;;;;;;;;;;;;;;4896938;29;19919;-86
2023/04/23 00:14:03;;;;;;;;;;;;;;;;;;4924915;29;19982;-88
2023/04/23 00:16:29;;;;;;;;;;;;;;;;;;4918241;29;19939;-89
2023/04/23 00:18:54;;;;;;;;;;;;;;;;;;4923723;29;20010;-90
2023/04/23 00:21:19;;;;;;;;;;;;;;;;;;4895229;29;19920;-91
2023/04/23 00:23:45;;;;;;;;;;;;;;;;;;4916313;29;19946;-91
2023/04/23 00:26:10;;;;;;;;;;;;;;;;;;4909485;29;20475;-92
2023/04/23 00:28:35;;;;;;;;;;;;;;;;;;4904793;29;19966;-90
2023/04/23 00:31:01;;;;;;;;;;;;;;;;;;4920696;29;20047;-90
2023/04/23 00:33:26;;;;;;;;;;;;;;;;;;4910611;29;19931;-90
2023/04/23 00:35:52;;;;;;;;;;;;;;;;;;4904278;29;19916;-92
2023/04/23 00:38:19;;;;;;;;;;;;;;;;;;4899772;29;19920;-91
2023/04/23 00:40:45;;;;;;;;;;;;;;;;;;4902879;29;19995;-91
2023/04/23 00:43:10;;;;;;;;;;;;;;;;;;4919734;29;19968;-92
2023/04/23 00:45:37;;;;;;;;;;;;;;;;;;4898563;29;19948;-89
2023/04/23 00:48:02;;;;;;;;;;;;;;;;;;4892698;29;19915;-90
2023/04/23 00:50:28;;;;;;;;;;;;;;;;;;4909132;29;20312;-90
2023/04/23 00:52:53;;;;;;;;;;;;;;;;;;4914460;29;19955;-90
2023/04/23 00:55:20;;;;;;;;;;;;;;;;;;4889900;29;19915;-91
2023/04/23 00:57:45;;;;;;;;;;;;;;;;;;4906289;29;19920;-91
2023/04/23 01:00:12;;;;;;;;;;;;;;;;;;4912473;29;19915;-93
2023/04/23 01:02:38;;;;;;;;;;;;;;;;;;4901457;29;19920;-90
2023/04/23 01:05:03;;;;;;;;;;;;;;;;;;4911863;29;19922;-92
2023/04/23 01:07:29;;;;;;;;;;;;;;;;;;4891422;29;19919;-93
2023/04/23 01:09:54;;;;;;;;;;;;;;;;;;4905389;29;19915;-92
2023/04/23 01:12:20;;;;;;;;;;;;;;;;;;4898211;29;19966;-91
2023/04/23 01:20:08;;;;;;;;;;;;;;;;;;5834410;23;19923;-85
2023/04/23 01:28:00;;;;;;;;;;;;;;;;;;4940371;28;19911;-86
2023/04/23 01:30:26;;;;;;;;;;;;;;;;;;4901584;29;19915;-87
2023/04/23 01:32:52;;;;;;;;;;;;;;;;;;4910717;29;20014;-86
2023/04/23 01:35:18;;;;;;;;;;;;;;;;;;4885695;29;19969;-87
2023/04/23 01:37:43;;;;;;;;;;;;;;;;;;4895534;29;19927;-87
2023/04/23 01:40:10;;;;;;;;;;;;;;;;;;4891162;29;19916;-88
2023/04/23 01:42:35;;;;;;;;;;;;;;;;;;4895511;29;20303;-88
2023/04/23 01:45:01;;;;;;;;;;;;;;;;;;4864206;29;19916;-88
2023/04/23 01:47:26;;;;;;;;;;;;;;;;;;4873149;29;19940;-87
2023/04/23 01:49:51;;;;;;;;;;;;;;;;;;4886668;29;20366;-89
2023/04/23 01:52:17;;;;;;;;;;;;;;;;;;4879282;29;19923;-88
2023/04/23 01:54:43;;;;;;;;;;;;;;;;;;4882557;29;20006;-88
2023/04/23 01:57:08;;;;;;;;;;;;;;;;;;4876770;29;19979;-87
2023/04/23 01:59:34;;;;;;;;;;;;;;;;;;4888533;29;19915;-89
2023/04/23 02:01:59;;;;;;;;;;;;;;;;;;4870626;29;19916;-88
2023/04/23 02:04:25;;;;;;;;;;;;;;;;;;4895402;29;19926;-87
2023/04/23 02:06:50;;;;;;;;;;;;;;;;;;4857000;29;20106;-88
2023/04/23 02:09:16;;;;;;;;;;;;;;;;;;4878759;29;20391;-90
2023/04/23 02:11:41;;;;;;;;;;;;;;;;;;4878382;29;19915;-88
2023/04/23 02:14:07;;;;;;;;;;;;;;;;;;4855827;29;20320;-89
2023/04/23 02:16:33;;;;;;;;;;;;;;;;;;4894758;29;20292;-90
2023/04/23 02:18:59;;;;;;;;;;;;;;;;;;4868499;29;19916;-88
2023/04/23 02:21:26;;;;;;;;;;;;;;;;;;4858886;29;19951;-87
2023/04/23 02:23:51;;;;;;;;;;;;;;;;;;4874762;29;20342;-91
2023/04/23 02:26:17;;;;;;;;;;;;;;;;;;4867783;29;20317;-89
2023/04/23 02:28:43;;;;;;;;;;;;;;;;;;4881311;29;19924;-88
2023/04/23 02:31:08;;;;;;;;;;;;;;;;;;4873470;29;20325;-88
2023/04/23 02:33:37;;;;;;;;;;;;;;;;;;4863320;29;20006;-88
2023/04/23 02:36:02;;;;;;;;;;;;;;;;;;4876256;29;19915;-86
2023/04/23 02:38:28;;;;;;;;;;;;;;;;;;4860218;29;19920;-88
2023/04/23 02:40:53;;;;;;;;;;;;;;;;;;4870929;29;19916;-88
2023/04/23 02:43:19;;;;;;;;;;;;;;;;;;4863481;29;19987;-87
2023/04/23 02:45:45;;;;;;;;;;;;;;;;;;4864639;29;19919;-87
2023/04/23 02:48:10;;;;;;;;;;;;;;;;;;4890212;29;19916;-87
2023/04/23 02:53:18;;;;;;;;;;;;;;;;;;5993489;23;19925;-86
2023/04/23 03:01:14;;;;;;;;;;;;;;;;;;5780649;23;19919;-86
2023/04/23 03:03:39;;;;;;;;;;;;;;;;;;5102016;23;19927;-86
2023/04/23 03:06:05;;;;;;;;;;;;;;;;;;4925117;29;19926;-86
2023/04/23 03:08:31;;;;;;;;;;;;;;;;;;5185956;23;19912;-86
2023/04/23 03:24:22;;;;;;;;;;;;;;;;;;5788641;23;19962;-88
2023/04/23 03:26:49;;;;;;;;;;;;;;;;;;5024319;23;19912;-87
2023/04/23 03:29:14;;;;;;;;;;;;;;;;;;5279991;23;20890;-86
2023/04/23 03:34:24;;;;;;;;;;;;;;;;;;4973614;23;19994;-86
2023/04/23 03:36:52;;;;;;;;;;;;;;;;;;4919047;29;19919;-87
2023/04/23 03:39:18;;;;;;;;;;;;;;;;;;4906528;29;19975;-87
2023/04/23 03:41:53;;;;;;;;;;;;;;;;;;4896743;29;19982;-86
2023/04/23 03:47:12;;;;;;;;;;;;;;;;;;5560847;23;19927;-85
2023/04/23 03:52:22;;;;;;;;;;;;;;;;;;5625468;23;19923;-86
2023/04/23 04:05:49;;;;;;;;;;;;;;;;;;5802871;23;19991;-83
2023/04/23 04:08:15;;;;;;;;;;;;;;;;;;4944093;28;19904;-85
2023/04/23 04:24:13;;;;;;;;;;;;;;;;;;6013202;23;20732;-83
2023/04/23 04:29:30;;;;;;;;;;;;;;;;;;5599233;23;19923;-84
2023/04/23 05:37:11;;;;;;;;;;;;;;;;;;5671072;23;20961;-84
2023/04/23 05:53:14;;;;;;;;;;;;;;;;;;5171576;23;20636;-85
2023/04/23 05:58:21;;;;;;;;;;;;;;;;;;5278897;23;19911;-86
2023/04/23 06:00:47;;;;;;;;;;;;;;;;;;5242056;23;19983;-88
2023/04/23 06:19:42;;;;;;;;;;;;;;;;;;5310010;23;21045;-85
2023/04/23 06:22:10;;;;;;;;;;;;;;;;;;5169239;23;21780;-85
2023/04/23 06:24:39;;;;;;;;;;;;;;;;;;4921645;29;19970;-86
2023/04/23 06:32:25;;;;;;;;;;;;;;;;;;5909234;23;19925;-83
2023/04/23 06:43:14;;;;;;;;;;;;;;;;;;5405208;23;19919;-85
2023/04/23 06:46:17;;;;;;;;;;;;;;;;;;5103182;23;19930;-85
2023/04/23 06:51:26;;;;;;;;;;;;;;;;;;5372636;23;19927;-86
2023/04/23 06:59:33;;;;;;;;;;;;;;;;;;5420321;23;19955;-86
2023/04/23 07:07:36;;;;;;;;;;;;;;;;;;5848985;23;21029;-82
2023/04/23 07:15:28;;;;;;;;;;;;;;;;;;5142860;23;19955;-90
2023/04/23 07:17:53;;;;;;;;;;;;;;;;;;4906529;29;19923;-88
2023/04/23 07:20:19;;;;;;;;;;;;;;;;;;4904571;29;20380;-91
2023/04/23 07:22:44;;;;;;;;;;;;;;;;;;4926733;29;19940;-87
2023/04/23 07:25:09;;;;;;;;;;;;;;;;;;4921388;29;20134;-92
2023/04/23 07:27:35;;;;;;;;;;;;;;;;;;4912940;29;20288;-92
2023/04/23 07:30:01;;;;;;;;;;;;;;;;;;4895641;29;20004;-86
2023/04/23 07:32:26;;;;;;;;;;;;;;;;;;4923617;29;20435;-87
2023/04/23 07:34:52;;;;;;;;;;;;;;;;;;4898219;29;19915;-86
2023/04/23 07:37:17;;;;;;;;;;;;;;;;;;4910323;29;19962;-85
2023/04/23 07:39:46;;;;;;;;;;;;;;;;;;4902523;29;19916;-86
2023/04/23 07:42:11;;;;;;;;;;;;;;;;;;4931146;29;19922;-82
2023/04/23 07:44:37;;;;;;;;;;;;;;;;;;4938295;29;19924;-89
2023/04/23 07:47:02;;;;;;;;;;;;;;;;;;4885400;29;19919;-88
2023/04/23 07:49:27;;;;;;;;;;;;;;;;;;4888460;29;19922;-87
2023/04/23 07:51:53;;;;;;;;;;;;;;;;;;4903793;29;19935;-89
2023/04/23 07:54:19;;;;;;;;;;;;;;;;;;4927660;28;19903;-82
2023/04/23 07:56:45;;;;;;;;;;;;;;;;;;5054185;23;20008;-83
2023/04/23 07:59:10;;;;;;;;;;;;;;;;;;4909577;29;19903;-84
2023/04/23 08:01:36;;;;;;;;;;;;;;;;;;4957537;28;19918;-84
2023/04/23 08:04:04;;;;;;;;;;;;;;;;;;4921760;29;19926;-82
2023/04/23 08:06:54;;;;;;;;;;;;;;;;;;4934887;28;19910;-83
2023/04/23 08:09:24;;;;;;;;;;;;;;;;;;4924638;29;19927;-83
2023/04/23 08:11:50;;;;;;;;;;;;;;;;;;4909038;29;19903;-85
2023/04/23 08:14:17;;;;;;;;;;;;;;;;;;4923889;29;19974;-83
2023/04/23 08:16:44;;;;;;;;;;;;;;;;;;4906242;29;19966;-85
2023/04/23 08:19:10;;;;;;;;;;;;;;;;;;4937694;28;19971;-85
2023/04/23 08:21:37;;;;;;;;;;;;;;;;;;4900394;29;19922;-86
2023/04/23 08:24:03;;;;;;;;;;;;;;;;;;4915538;29;19915;-86
2023/04/23 08:26:28;;;;;;;;;;;;;;;;;;4878750;29;19916;-88
2023/04/23 08:28:54;;;;;;;;;;;;;;;;;;4898648;29;19920;-88
2023/04/23 08:31:19;;;;;;;;;;;;;;;;;;4891692;29;19922;-89
2023/04/23 08:33:45;;;;;;;;;;;;;;;;;;4923581;29;19922;-84
2023/04/23 08:36:11;;;;;;;;;;;;;;;;;;4907063;29;19912;-81
2023/04/23 08:38:38;;;;;;;;;;;;;;;;;;5138646;23;19934;-85
2023/04/23 08:41:03;;;;;;;;;;;;;;;;;;4958757;29;19919;-87
2023/04/23 08:43:29;;;;;;;;;;;;;;;;;;4943769;29;19919;-87
2023/04/23 08:45:54;;;;;;;;;;;;;;;;;;4907947;29;20469;-90
2023/04/23 08:48:19;;;;;;;;;;;;;;;;;;4914948;29;19915;-89
2023/04/23 08:50:45;;;;;;;;;;;;;;;;;;4916062;29;19910;-85
2023/04/23 08:53:11;;;;;;;;;;;;;;;;;;4938552;29;20315;-82
2023/04/23 08:55:36;;;;;;;;;;;;;;;;;;4937820;29;19912;-86
2023/04/23 08:58:05;;;;;;;;;;;;;;;;;;4931936;29;20335;-87
2023/04/23 09:00:30;;;;;;;;;;;;;;;;;;4919728;29;19915;-87
2023/04/23 09:02:55;;;;;;;;;;;;;;;;;;4931732;29;19915;-91
2023/04/23 09:05:21;;;;;;;;;;;;;;;;;;4893056;29;20009;-91
2023/04/23 09:07:46;;;;;;;;;;;;;;;;;;4925267;29;20252;-91
2023/04/23 09:10:12;;;;;;;;;;;;;;;;;;4916161;29;20402;-90
2023/04/23 09:12:37;;;;;;;;;;;;;;;;;;4936394;29;20331;-92
2023/04/23 09:15:09;;;;;;;;;;;;;;;;;;4919525;29;20272;-92
2023/04/23 09:17:35;;;;;;;;;;;;;;;;;;4927063;29;19964;-90
2023/04/23 09:20:00;;;;;;;;;;;;;;;;;;4926706;29;19915;-89
2023/04/23 09:22:26;;;;;;;;;;;;;;;;;;4937890;29;19915;-92
2023/04/23 09:24:51;;;;;;;;;;;;;;;;;;4923864;29;20346;-90
2023/04/23 09:27:16;;;;;;;;;;;;;;;;;;4936340;29;19970;-92
2023/04/23 09:29:42;;;;;;;;;;;;;;;;;;4935397;29;19925;-92
2023/04/23 09:32:07;;;;;;;;;;;;;;;;;;4929694;29;19916;-91
2023/04/23 09:34:33;;;;;;;;;;;;;;;;;;4939967;29;20331;-89
2023/04/23 09:36:58;;;;;;;;;;;;;;;;;;4944094;29;19974;-91
2023/04/23 09:39:23;;;;;;;;;;;;;;;;;;4929347;29;19926;-89
2023/04/23 09:41:49;;;;;;;;;;;;;;;;;;4930062;29;19922;-91
2023/04/23 09:44:14;;;;;;;;;;;;;;;;;;4936439;29;19915;-92
2023/04/23 09:46:40;;;;;;;;;;;;;;;;;;4907139;29;19926;-91
2023/04/23 09:49:15;;;;;;;;;;;;;;;;;;4930792;29;19946;-91
2023/04/23 09:51:40;;;;;;;;;;;;;;;;;;4884841;29;19922;-91
2023/04/23 09:54:06;;;;;;;;;;;;;;;;;;4917132;29;20299;-91
2023/04/23 09:56:31;;;;;;;;;;;;;;;;;;4916815;29;19915;-91
2023/04/23 09:58:57;;;;;;;;;;;;;;;;;;4915871;29;19915;-90
2023/04/23 10:01:22;;;;;;;;;;;;;;;;;;4916013;29;19926;-90
2023/04/23 10:03:47;;;;;;;;;;;;;;;;;;4928249;29;19915;-92
2023/04/23 10:06:14;;;;;;;;;;;;;;;;;;4921214;29;20280;-90
2023/04/23 10:08:39;;;;;;;;;;;;;;;;;;4917855;29;19915;-91
2023/04/23 10:11:05;;;;;;;;;;;;;;;;;;4929968;29;19915;-92
2023/04/23 10:13:30;;;;;;;;;;;;;;;;;;4924181;29;19915;-93
2023/04/23 10:15:56;;;;;;;;;;;;;;;;;;4928192;29;19961;-92
2023/04/23 10:18:21;;;;;;;;;;;;;;;;;;4934034;29;19919;-91
2023/04/23 10:20:46;;;;;;;;;;;;;;;;;;4902836;29;19922;-92
2023/04/23 10:23:12;;;;;;;;;;;;;;;;;;4906812;29;20356;-89
2023/04/23 10:25:37;;;;;;;;;;;;;;;;;;4932409;29;19938;-91
2023/04/23 10:28:03;;;;;;;;;;;;;;;;;;4941882;29;20397;-93
2023/04/23 10:30:29;;;;;;;;;;;;;;;;;;4925683;29;19919;-91
2023/04/23 10:32:54;;;;;;;;;;;;;;;;;;4929602;29;19915;-92
2023/04/23 10:35:20;;;;;;;;;;;;;;;;;;4942846;29;19919;-88
2023/04/23 10:37:46;;;;;;;;;;;;;;;;;;4931569;29;19926;-90
2023/04/23 10:40:12;;;;;;;;;;;;;;;;;;4942914;29;19919;-89
2023/04/23 10:42:38;;;;;;;;;;;;;;;;;;4938417;29;19915;-88
2023/04/23 10:45:03;;;;;;;;;;;;;;;;;;4928171;29;19922;-91
2023/04/23 10:47:29;;;;;;;;;;;;;;;;;;4903271;29;19919;-91
2023/04/23 10:49:54;;;;;;;;;;;;;;;;;;4922288;29;19923;-91
2023/04/23 10:52:20;;;;;;;;;;;;;;;;;;4945829;29;19917;-89
2023/04/23 10:54:46;;;;;;;;;;;;;;;;;;4941404;29;19915;-92
2023/04/23 10:57:11;;;;;;;;;;;;;;;;;;4928671;29;20018;-92
2023/04/23 10:59:37;;;;;;;;;;;;;;;;;;4931876;29;19915;-91
2023/04/23 11:02:02;;;;;;;;;;;;;;;;;;4934659;29;19919;-92
2023/04/23 11:04:27;;;;;;;;;;;;;;;;;;4925457;29;19915;-89
2023/04/23 11:06:56;;;;;;;;;;;;;;;;;;4937062;29;20021;-90
2023/04/23 11:09:21;;;;;;;;;;;;;;;;;;4929843;29;19915;-89
2023/04/23 11:11:46;;;;;;;;;;;;;;;;;;4930311;29;19923;-92
2023/04/23 11:14:15;;;;;;;;;;;;;;;;;;4919841;29;19926;-89
2023/04/23 11:16:40;;;;;;;;;;;;;;;;;;4938376;29;20414;-89
2023/04/23 11:19:06;;;;;;;;;;;;;;;;;;4922558;29;20067;-88
2023/04/23 11:21:31;;;;;;;;;;;;;;;;;;4931981;29;19915;-88
2023/04/23 11:23:57;;;;;;;;;;;;;;;;;;4934508;29;20367;-91
2023/04/23 11:26:22;;;;;;;;;;;;;;;;;;4924956;29;20108;-88
2023/04/23 11:28:48;;;;;;;;;;;;;;;;;;4937770;29;19915;-88
2023/04/23 11:31:13;;;;;;;;;;;;;;;;;;4927269;29;20434;-88
2023/04/23 11:33:38;;;;;;;;;;;;;;;;;;4929346;29;19922;-88
2023/04/23 11:36:04;;;;;;;;;;;;;;;;;;4916157;29;20259;-89
2023/04/23 11:38:29;;;;;;;;;;;;;;;;;;4936536;29;20468;-89
2023/04/23 11:40:55;;;;;;;;;;;;;;;;;;4922198;29;19919;-88
2023/04/23 11:43:21;;;;;;;;;;;;;;;;;;4913978;29;19927;-87
2023/04/23 11:45:46;;;;;;;;;;;;;;;;;;4897641;29;19915;-90
2023/04/23 11:48:12;;;;;;;;;;;;;;;;;;4906587;29;19923;-90
2023/04/23 11:50:37;;;;;;;;;;;;;;;;;;4934392;29;20395;-90
2023/04/23 11:53:03;;;;;;;;;;;;;;;;;;4907425;29;20014;-89
2023/04/23 11:55:28;;;;;;;;;;;;;;;;;;4907187;29;20016;-89
2023/04/23 11:57:54;;;;;;;;;;;;;;;;;;4931109;29;19919;-89
2023/04/23 12:00:19;;;;;;;;;;;;;;;;;;4922303;29;19986;-91
2023/04/23 12:02:45;;;;;;;;;;;;;;;;;;4917344;29;19915;-89
2023/04/23 12:05:10;;;;;;;;;;;;;;;;;;4925030;29;19991;-91
2023/04/23 12:07:36;;;;;;;;;;;;;;;;;;4936890;29;20320;-91
2023/04/23 12:10:01;;;;;;;;;;;;;;;;;;4907990;29;19915;-90
2023/04/23 12:12:27;;;;;;;;;;;;;;;;;;4917594;29;20378;-92
2023/04/23 12:14:52;;;;;;;;;;;;;;;;;;4918905;29;19919;-91
2023/04/23 12:17:18;;;;;;;;;;;;;;;;;;4927079;29;19919;-89
2023/04/23 12:19:43;;;;;;;;;;;;;;;;;;4911524;29;19992;-90
2023/04/23 12:22:09;;;;;;;;;;;;;;;;;;4934416;29;19918;-89
2023/04/23 12:24:34;;;;;;;;;;;;;;;;;;4924064;29;20351;-88
2023/04/23 12:27:01;;;;;;;;;;;;;;;;;;4935204;29;19915;-88
2023/04/23 12:29:26;;;;;;;;;;;;;;;;;;4931262;29;19915;-89
2023/04/23 12:31:52;;;;;;;;;;;;;;;;;;4940288;29;19916;-87
2023/04/23 12:34:17;;;;;;;;;;;;;;;;;;4944986;29;20460;-86
2023/04/23 12:36:42;;;;;;;;;;;;;;;;;;4954306;29;19919;-85
2023/04/23 12:39:08;;;;;;;;;;;;;;;;;;4930489;29;20434;-86
2023/04/23 12:41:33;;;;;;;;;;;;;;;;;;4941539;29;19922;-88
2023/04/23 12:43:59;;;;;;;;;;;;;;;;;;4931233;29;19915;-91
2023/04/23 12:46:24;;;;;;;;;;;;;;;;;;4938985;29;20365;-89
2023/04/23 12:48:50;;;;;;;;;;;;;;;;;;4918819;29;19926;-91
2023/04/23 12:51:15;;;;;;;;;;;;;;;;;;4930759;29;20351;-88
2023/04/23 12:53:40;;;;;;;;;;;;;;;;;;4926069;29;19919;-88
2023/04/23 12:56:06;;;;;;;;;;;;;;;;;;4930923;29;19961;-88
2023/04/23 12:58:31;;;;;;;;;;;;;;;;;;4920169;29;19923;-86
2023/04/23 13:00:57;;;;;;;;;;;;;;;;;;4900988;29;20303;-86
2023/04/23 13:03:22;;;;;;;;;;;;;;;;;;4924946;29;19919;-86
2023/04/23 13:05:47;;;;;;;;;;;;;;;;;;4936482;29;19925;-87
2023/04/23 13:08:13;;;;;;;;;;;;;;;;;;4905478;29;19915;-88
2023/04/23 13:10:38;;;;;;;;;;;;;;;;;;4919607;29;19915;-88
2023/04/23 13:13:04;;;;;;;;;;;;;;;;;;4931190;29;19915;-85
2023/04/23 13:15:29;;;;;;;;;;;;;;;;;;4923187;29;20367;-86
2023/04/23 13:17:55;;;;;;;;;;;;;;;;;;4928937;29;19966;-88
2023/04/23 13:20:20;;;;;;;;;;;;;;;;;;4920662;29;20379;-89
2023/04/23 13:22:46;;;;;;;;;;;;;;;;;;4934859;29;20405;-88
2023/04/23 13:25:11;;;;;;;;;;;;;;;;;;4925634;29;19930;-87
2023/04/23 13:27:36;;;;;;;;;;;;;;;;;;4930299;29;20006;-84
2023/04/23 13:30:02;;;;;;;;;;;;;;;;;;4933268;29;19925;-85
2023/04/23 13:32:30;;;;;;;;;;;;;;;;;;4921481;29;19915;-82
2023/04/23 13:34:59;;;;;;;;;;;;;;;;;;4935434;29;19916;-84
2023/04/23 13:37:26;;;;;;;;;;;;;;;;;;4929936;29;19918;-86
2023/04/23 13:39:51;;;;;;;;;;;;;;;;;;4927790;29;19926;-86
2023/04/23 13:42:17;;;;;;;;;;;;;;;;;;4933618;29;19915;-86
2023/04/23 13:44:42;;;;;;;;;;;;;;;;;;4903666;29;19933;-87
2023/04/23 13:47:07;;;;;;;;;;;;;;;;;;4928775;29;19915;-86
2023/04/23 13:49:33;;;;;;;;;;;;;;;;;;4925530;29;20291;-86
2023/04/23 13:52:03;;;;;;;;;;;;;;;;;;4923409;29;19915;-86
2023/04/23 13:54:28;;;;;;;;;;;;;;;;;;4901887;29;19915;-86
2023/04/23 13:56:54;;;;;;;;;;;;;;;;;;4905663;29;19919;-88
2023/04/23 13:59:19;;;;;;;;;;;;;;;;;;4904290;29;19967;-87
2023/04/23 14:01:48;;;;;;;;;;;;;;;;;;4927566;29;20402;-88
2023/04/23 14:04:13;;;;;;;;;;;;;;;;;;4920786;29;19970;-88
2023/04/23 14:06:39;;;;;;;;;;;;;;;;;;4917309;29;20108;-88
2023/04/23 14:09:05;;;;;;;;;;;;;;;;;;4931552;29;19915;-87
2023/04/23 14:11:30;;;;;;;;;;;;;;;;;;4912256;29;19919;-86
2023/04/23 14:13:56;;;;;;;;;;;;;;;;;;4927850;29;20371;-85
2023/04/23 14:16:21;;;;;;;;;;;;;;;;;;4933150;29;19919;-85
2023/04/23 14:18:46;;;;;;;;;;;;;;;;;;4941466;29;19970;-86
2023/04/23 14:21:12;;;;;;;;;;;;;;;;;;4932923;29;19927;-86
2023/04/23 14:23:37;;;;;;;;;;;;;;;;;;4929132;29;20278;-85
2023/04/23 14:26:03;;;;;;;;;;;;;;;;;;4925430;29;19915;-84
2023/04/23 14:28:28;;;;;;;;;;;;;;;;;;4940707;29;20317;-84
2023/04/23 14:30:54;;;;;;;;;;;;;;;;;;4930470;29;19922;-84
2023/04/23 14:33:19;;;;;;;;;;;;;;;;;;4933796;29;19922;-83
2023/04/23 14:35:46;;;;;;;;;;;;;;;;;;4939647;29;20276;-85
2023/04/23 14:38:11;;;;;;;;;;;;;;;;;;4932944;29;20434;-85
2023/04/23 14:40:36;;;;;;;;;;;;;;;;;;4943001;29;19970;-86
2023/04/23 14:43:02;;;;;;;;;;;;;;;;;;4942039;29;19919;-85
2023/04/23 14:45:30;;;;;;;;;;;;;;;;;;4934128;29;19915;-85
2023/04/23 14:47:55;;;;;;;;;;;;;;;;;;4938793;29;19915;-86
2023/04/23 14:50:20;;;;;;;;;;;;;;;;;;4942967;29;19982;-84
2023/04/23 14:52:46;;;;;;;;;;;;;;;;;;4941619;29;19915;-84
2023/04/23 14:55:11;;;;;;;;;;;;;;;;;;4940885;29;20429;-85
2023/04/23 14:57:37;;;;;;;;;;;;;;;;;;4923754;29;19919;-84
2023/04/23 15:00:07;;;;;;;;;;;;;;;;;;4928225;29;19996;-86
2023/04/23 15:02:33;;;;;;;;;;;;;;;;;;4932656;29;19919;-85
2023/04/23 15:04:58;;;;;;;;;;;;;;;;;;4920581;29;20287;-86
2023/04/23 15:07:24;;;;;;;;;;;;;;;;;;4921482;29;19962;-86
2023/04/23 15:09:49;;;;;;;;;;;;;;;;;;4926050;29;20316;-85
2023/04/23 15:12:15;;;;;;;;;;;;;;;;;;4932882;29;19938;-86
2023/04/23 15:14:40;;;;;;;;;;;;;;;;;;4921365;29;20337;-85
2023/04/23 15:17:06;;;;;;;;;;;;;;;;;;4937226;29;19925;-86
2023/04/23 15:19:31;;;;;;;;;;;;;;;;;;4939154;29;20399;-85
2023/04/23 15:21:57;;;;;;;;;;;;;;;;;;4926122;29;19967;-85
2023/04/23 15:24:22;;;;;;;;;;;;;;;;;;4936084;29;20000;-85
2023/04/23 15:26:48;;;;;;;;;;;;;;;;;;4923194;29;19914;-86
2023/04/23 15:29:13;;;;;;;;;;;;;;;;;;4933660;29;19915;-86
2023/04/23 15:31:39;;;;;;;;;;;;;;;;;;4932995;29;20293;-86
2023/04/23 15:34:07;;;;;;;;;;;;;;;;;;4934876;29;19938;-86
2023/04/23 15:36:33;;;;;;;;;;;;;;;;;;4950834;29;19999;-85
2023/04/23 15:38:59;;;;;;;;;;;;;;;;;;4936733;29;19919;-83
2023/04/23 15:41:25;;;;;;;;;;;;;;;;;;4941013;29;19911;-85
2023/04/23 15:43:52;;;;;;;;;;;;;;;;;;4937719;29;19976;-85
2023/04/23 15:46:17;;;;;;;;;;;;;;;;;;4930662;29;19915;-85
2023/04/23 15:48:43;;;;;;;;;;;;;;;;;;4943237;29;19962;-86
2023/04/23 15:51:08;;;;;;;;;;;;;;;;;;4934201;29;19926;-85
2023/04/23 15:53:34;;;;;;;;;;;;;;;;;;4937064;29;19963;-86
2023/04/23 15:55:59;;;;;;;;;;;;;;;;;;4937945;29;19970;-85
2023/04/23 15:58:25;;;;;;;;;;;;;;;;;;4920699;29;19919;-87
2023/04/23 16:00:50;;;;;;;;;;;;;;;;;;4909369;29;20013;-85
2023/04/23 16:03:15;;;;;;;;;;;;;;;;;;4938202;29;19922;-86
2023/04/23 16:05:41;;;;;;;;;;;;;;;;;;4927147;29;19922;-85
2023/04/23 16:08:06;;;;;;;;;;;;;;;;;;4918226;29;19927;-86
2023/04/23 16:10:33;;;;;;;;;;;;;;;;;;4936230;29;19915;-85
2023/04/23 16:12:59;;;;;;;;;;;;;;;;;;4937356;29;20019;-83
2023/04/23 16:15:24;;;;;;;;;;;;;;;;;;4930952;29;19915;-83
2023/04/23 16:17:51;;;;;;;;;;;;;;;;;;4922603;29;19971;-85
2023/04/23 16:20:16;;;;;;;;;;;;;;;;;;4934652;29;19915;-86
2023/04/23 16:22:42;;;;;;;;;;;;;;;;;;4922166;29;20155;-86
2023/04/23 16:25:07;;;;;;;;;;;;;;;;;;4931426;29;19919;-86
2023/04/23 16:27:33;;;;;;;;;;;;;;;;;;4925944;29;20416;-87
2023/04/23 16:29:58;;;;;;;;;;;;;;;;;;4943044;29;19922;-86
2023/04/23 16:32:24;;;;;;;;;;;;;;;;;;4937051;29;19925;-85
2023/04/23 16:34:49;;;;;;;;;;;;;;;;;;4905600;29;20290;-85
2023/04/23 16:37:15;;;;;;;;;;;;;;;;;;4929036;29;19929;-86
2023/04/23 16:39:40;;;;;;;;;;;;;;;;;;4918049;29;20343;-86
2023/04/23 16:42:05;;;;;;;;;;;;;;;;;;4930484;29;19918;-86
2023/04/23 16:44:31;;;;;;;;;;;;;;;;;;4920153;29;20002;-87
2023/04/23 16:46:56;;;;;;;;;;;;;;;;;;4932535;29;20356;-86
2023/04/23 16:49:22;;;;;;;;;;;;;;;;;;4924351;29;20286;-86
2023/04/23 16:51:47;;;;;;;;;;;;;;;;;;4910892;29;19915;-86
2023/04/23 16:54:13;;;;;;;;;;;;;;;;;;4932543;29;20302;-85
2023/04/23 16:56:38;;;;;;;;;;;;;;;;;;4920886;29;19915;-86
2023/04/23 16:59:03;;;;;;;;;;;;;;;;;;4929912;29;19969;-86
2023/04/23 17:01:29;;;;;;;;;;;;;;;;;;4909494;29;20383;-85
2023/04/23 17:03:54;;;;;;;;;;;;;;;;;;4924666;29;19915;-85
2023/04/23 17:06:20;;;;;;;;;;;;;;;;;;4932730;29;19915;-86
2023/04/23 17:08:46;;;;;;;;;;;;;;;;;;4919467;29;19922;-86
2023/04/23 17:11:11;;;;;;;;;;;;;;;;;;4936067;29;20001;-86
2023/04/23 17:13:36;;;;;;;;;;;;;;;;;;4922762;29;20332;-86
2023/04/23 17:16:02;;;;;;;;;;;;;;;;;;4916368;29;19915;-86
2023/04/23 17:18:27;;;;;;;;;;;;;;;;;;4932726;29;19919;-86
2023/04/23 17:20:52;;;;;;;;;;;;;;;;;;4924548;29;19973;-85
2023/04/23 17:23:18;;;;;;;;;;;;;;;;;;4928833;29;20418;-84
2023/04/23 17:25:43;;;;;;;;;;;;;;;;;;4929298;29;19953;-85
2023/04/23 17:28:09;;;;;;;;;;;;;;;;;;4906343;29;19916;-86
2023/04/23 17:30:35;;;;;;;;;;;;;;;;;;4932555;29;19994;-86
2023/04/23 17:33:00;;;;;;;;;;;;;;;;;;4904743;29;19982;-85
2023/04/23 17:35:26;;;;;;;;;;;;;;;;;;4927572;29;19915;-87
2023/04/23 17:37:51;;;;;;;;;;;;;;;;;;4929832;29;20483;-86
2023/04/23 17:40:16;;;;;;;;;;;;;;;;;;4938013;29;19926;-86
2023/04/23 17:42:42;;;;;;;;;;;;;;;;;;4920670;29;20298;-86
2023/04/23 17:45:07;;;;;;;;;;;;;;;;;;4931762;29;20006;-87
2023/04/23 17:47:33;;;;;;;;;;;;;;;;;;4909717;29;19919;-86
2023/04/23 17:49:58;;;;;;;;;;;;;;;;;;4922718;29;20015;-87
2023/04/23 17:52:23;;;;;;;;;;;;;;;;;;4932061;29;19962;-86
2023/04/23 17:54:49;;;;;;;;;;;;;;;;;;4919334;29;19915;-86
2023/04/23 17:57:15;;;;;;;;;;;;;;;;;;4928972;29;20340;-88
2023/04/23 17:59:40;;;;;;;;;;;;;;;;;;4930091;29;19986;-86
2023/04/23 18:02:06;;;;;;;;;;;;;;;;;;4926033;29;20316;-86
2023/04/23 18:04:33;;;;;;;;;;;;;;;;;;4935619;29;19915;-86
2023/04/23 18:06:58;;;;;;;;;;;;;;;;;;4937784;29;19921;-87
2023/04/23 18:09:24;;;;;;;;;;;;;;;;;;4927647;29;20375;-86
2023/04/23 18:11:49;;;;;;;;;;;;;;;;;;4933050;29;19915;-88
2023/04/23 18:14:15;;;;;;;;;;;;;;;;;;4935454;29;19915;-89
2023/04/23 18:16:40;;;;;;;;;;;;;;;;;;4918286;29;20299;-88
2023/04/23 18:19:06;;;;;;;;;;;;;;;;;;4929647;29;20391;-87
2023/04/23 18:21:31;;;;;;;;;;;;;;;;;;4924272;29;20022;-87
2023/04/23 18:23:56;;;;;;;;;;;;;;;;;;4926366;29;20310;-88
2023/04/23 18:26:22;;;;;;;;;;;;;;;;;;4915249;29;20343;-87
2023/04/23 18:28:48;;;;;;;;;;;;;;;;;;4926921;29;19922;-90
2023/04/23 18:31:13;;;;;;;;;;;;;;;;;;4907122;29;19918;-89
2023/04/23 18:33:39;;;;;;;;;;;;;;;;;;4926801;29;20303;-86
2023/04/23 18:36:05;;;;;;;;;;;;;;;;;;4919535;29;19943;-88
2023/04/23 18:38:31;;;;;;;;;;;;;;;;;;4937314;29;19970;-89
2023/04/23 18:40:57;;;;;;;;;;;;;;;;;;4932361;29;19915;-88
2023/04/23 18:43:23;;;;;;;;;;;;;;;;;;4930275;29;19915;-89
2023/04/23 18:45:49;;;;;;;;;;;;;;;;;;4939687;29;19915;-88
2023/04/23 18:48:14;;;;;;;;;;;;;;;;;;4946360;29;20426;-86
2023/04/23 18:50:40;;;;;;;;;;;;;;;;;;4932663;29;20434;-87
2023/04/23 18:53:05;;;;;;;;;;;;;;;;;;4949752;29;20298;-87
2023/04/23 18:55:30;;;;;;;;;;;;;;;;;;4918410;29;19918;-86
2023/04/23 18:57:56;;;;;;;;;;;;;;;;;;4941281;29;19919;-89
2023/04/23 19:00:21;;;;;;;;;;;;;;;;;;4917496;29;19964;-88
2023/04/23 19:02:47;;;;;;;;;;;;;;;;;;4908632;29;20407;-90
2023/04/23 19:05:12;;;;;;;;;;;;;;;;;;4924242;29;20371;-87
2023/04/23 19:07:40;;;;;;;;;;;;;;;;;;4907641;29;20007;-89
2023/04/23 19:10:05;;;;;;;;;;;;;;;;;;4935346;29;19922;-88
2023/04/23 19:12:30;;;;;;;;;;;;;;;;;;4904959;29;19915;-88
2023/04/23 19:14:56;;;;;;;;;;;;;;;;;;4924714;23;19950;-85
2023/04/23 19:17:21;;;;;;;;;;;;;;;;;;4901749;29;19985;-87
2023/04/23 19:19:47;;;;;;;;;;;;;;;;;;4917366;29;19915;-86
2023/04/23 19:22:12;;;;;;;;;;;;;;;;;;4916913;29;19979;-87
2023/04/23 19:24:38;;;;;;;;;;;;;;;;;;4918371;29;20336;-86
2023/04/23 19:27:05;;;;;;;;;;;;;;;;;;4876302;29;19915;-86
2023/04/23 19:29:31;;;;;;;;;;;;;;;;;;4869932;29;19920;-86
2023/04/23 19:31:56;;;;;;;;;;;;;;;;;;4894874;29;19916;-86
2023/04/23 19:34:21;;;;;;;;;;;;;;;;;;4885993;29;20006;-88
2023/04/23 19:36:50;;;;;;;;;;;;;;;;;;4884978;29;19967;-88
2023/04/23 19:39:15;;;;;;;;;;;;;;;;;;4895882;29;19915;-86
2023/04/23 19:41:41;;;;;;;;;;;;;;;;;;4860407;29;19940;-85
2023/04/23 19:44:06;;;;;;;;;;;;;;;;;;4864837;29;19919;-86
2023/04/23 19:46:32;;;;;;;;;;;;;;;;;;4872398;29;19923;-86
2023/04/23 19:48:58;;;;;;;;;;;;;;;;;;4889353;29;19923;-86
2023/04/23 19:51:23;;;;;;;;;;;;;;;;;;4899035;29;20124;-85
2023/04/23 19:53:50;;;;;;;;;;;;;;;;;;4916305;29;19919;-84
2023/04/23 19:56:16;;;;;;;;;;;;;;;;;;4896491;29;19915;-84